createdAt,value
2023-01-03T00:02:10.753Z,8.90
2023-01-03T00:04:37.461Z,8.93
2023-01-03T00:07:04.063Z,8.93
2023-01-03T00:09:30.454Z,8.91
2023-01-03T00:12:15.484Z,8.93
2023-01-03T00:14:44.035Z,8.87
2023-01-03T00:17:12.326Z,8.85
2023-01-03T00:19:42.266Z,8.79
2023-01-03T00:22:09.835Z,8.76
2023-01-03T00:24:36.408Z,8.66
2023-01-03T00:27:03.313Z,8.64
2023-01-03T00:29:29.871Z,8.59
2023-01-03T00:31:56.414Z,8.55
2023-01-03T00:34:23.020Z,8.49
2023-01-03T00:36:49.838Z,8.49
2023-01-03T00:39:16.635Z,8.45
2023-01-03T00:41:43.242Z,8.44
2023-01-03T00:44:09.801Z,8.44
2023-01-03T00:46:36.578Z,8.40
2023-01-03T00:49:04.380Z,8.42
2023-01-03T00:51:34.116Z,8.41
2023-01-03T00:54:02.332Z,8.42
2023-01-03T00:56:34.128Z,8.40
2023-01-03T00:59:01.238Z,8.38
2023-01-03T01:01:29.568Z,8.39
2023-01-03T01:04:00.136Z,8.37
2023-01-03T01:06:32.136Z,8.35
2023-01-03T01:09:00.034Z,8.32
2023-01-03T01:11:27.338Z,8.30
2023-01-03T01:13:54.570Z,8.24
2023-01-03T01:16:25.127Z,8.22
2023-01-03T01:18:53.825Z,8.18
2023-01-03T01:21:26.221Z,8.07
2023-01-03T01:23:53.219Z,8.01
2023-01-03T01:26:22.898Z,8.00
2023-01-03T01:28:50.674Z,7.94
2023-01-03T01:31:20.480Z,7.86
2023-01-03T01:33:47.030Z,7.82
2023-01-03T01:36:18.609Z,7.77
2023-01-03T01:38:46.708Z,7.68
2023-01-03T01:41:16.218Z,7.62
2023-01-03T01:44:15.514Z,7.56
2023-01-03T01:46:42.873Z,7.49
2023-01-03T01:49:16.791Z,7.41
2023-01-03T01:51:43.470Z,7.38
2023-01-03T01:54:10.987Z,7.31
2023-01-03T01:56:46.102Z,7.30
2023-01-03T01:59:13.602Z,7.25
2023-01-03T02:01:42.474Z,7.21
2023-01-03T02:04:24.550Z,7.20
2023-01-03T02:06:52.206Z,7.07
2023-01-03T02:09:18.664Z,7.08
2023-01-03T02:12:15.683Z,7.06
2023-01-03T02:14:48.375Z,7.02
2023-01-03T02:17:17.715Z,6.97
2023-01-03T02:20:09.348Z,6.95
2023-01-03T02:22:36.175Z,6.87
2023-01-03T02:25:08.526Z,6.84
2023-01-03T02:27:47.060Z,6.81
2023-01-03T02:30:34.897Z,6.78
2023-01-03T02:33:16.196Z,6.72
2023-01-03T02:36:11.685Z,6.72
2023-01-03T02:39:03.982Z,6.69
2023-01-03T02:41:39.622Z,6.63
2023-01-03T02:44:14.362Z,6.55
2023-01-03T02:46:47.215Z,6.55
2023-01-03T02:49:18.693Z,6.51
2023-01-03T02:51:50.022Z,6.51
2023-01-03T02:54:25.051Z,6.50
2023-01-03T02:56:59.584Z,6.50
2023-01-03T02:59:51.986Z,6.50
2023-01-03T03:02:22.035Z,6.46
2023-01-03T03:04:51.116Z,6.50
2023-01-03T03:07:25.117Z,6.42
2023-01-03T03:10:10.261Z,6.37
2023-01-03T03:12:58.911Z,6.28
2023-01-03T03:15:33.321Z,6.28
2023-01-03T03:18:05.944Z,6.24
2023-01-03T03:20:50.892Z,6.18
2023-01-03T03:23:41.364Z,6.10
2023-01-03T03:26:14.991Z,6.05
2023-01-03T03:28:45.767Z,6.00
2023-01-03T03:31:12.213Z,5.96
2023-01-03T03:33:49.110Z,5.95
2023-01-03T03:36:23.388Z,5.92
2023-01-03T03:38:50.516Z,5.90
2023-01-03T03:41:54.562Z,5.87
2023-01-03T03:44:54.567Z,5.85
2023-01-03T03:47:27.019Z,5.81
2023-01-03T03:49:56.610Z,5.75
2023-01-03T03:52:28.425Z,5.75
2023-01-03T03:55:06.072Z,5.68
2023-01-03T03:57:37.314Z,5.67
2023-01-03T04:00:15.464Z,5.61
2023-01-03T04:02:47.105Z,5.57
2023-01-03T04:05:17.939Z,5.56
2023-01-03T04:07:44.590Z,5.55
2023-01-03T04:10:12.553Z,5.50
2023-01-03T04:12:39.315Z,5.49
2023-01-03T04:15:07.047Z,5.48
2023-01-03T04:17:33.651Z,5.47
2023-01-03T04:20:00.123Z,5.41
2023-01-03T04:22:26.527Z,5.39
2023-01-03T04:24:52.936Z,5.43
2023-01-03T04:27:19.336Z,5.42
2023-01-03T04:29:45.855Z,5.40
2023-01-03T04:32:12.433Z,5.41
2023-01-03T04:34:39.002Z,5.40
2023-01-03T04:37:05.568Z,5.38
2023-01-03T04:39:32.033Z,5.39
2023-01-03T04:42:01.427Z,5.46
2023-01-03T04:44:28.347Z,5.46
2023-01-03T04:46:54.765Z,5.47
2023-01-03T04:49:21.302Z,5.49
2023-01-03T04:51:47.717Z,5.46
2023-01-03T04:54:14.277Z,5.51
2023-01-03T04:56:40.667Z,5.51
2023-01-03T04:59:07.387Z,5.55
2023-01-03T05:01:34.000Z,5.57
2023-01-03T05:04:01.942Z,5.59
2023-01-03T05:06:29.100Z,5.61
2023-01-03T05:08:56.361Z,5.59
2023-01-03T05:11:23.301Z,5.63
2023-01-03T05:13:49.789Z,5.63
2023-01-03T05:16:17.110Z,5.64
2023-01-03T05:18:43.632Z,5.62
2023-01-03T05:21:35.044Z,5.67
2023-01-03T05:24:21.043Z,5.63
2023-01-03T05:26:47.818Z,5.62
2023-01-03T05:29:17.608Z,5.58
2023-01-03T05:31:44.215Z,5.58
2023-01-03T05:34:10.697Z,5.54
2023-01-03T05:36:37.243Z,5.51
2023-01-03T05:39:04.867Z,5.49
2023-01-03T05:41:50.409Z,5.46
2023-01-03T05:44:16.908Z,5.42
2023-01-03T05:46:43.348Z,5.33
2023-01-03T05:49:09.855Z,5.29
2023-01-03T05:51:36.218Z,5.31
2023-01-03T05:54:02.661Z,5.29
2023-01-03T05:56:31.088Z,5.25
2023-01-03T05:58:58.082Z,5.24
2023-01-03T06:01:28.718Z,5.29
2023-01-03T06:03:55.761Z,5.30
2023-01-03T06:06:22.307Z,5.30
2023-01-03T06:08:49.192Z,5.31
2023-01-03T06:11:16.710Z,5.34
2023-01-03T06:13:43.508Z,5.32
2023-01-03T06:16:34.236Z,5.36
2023-01-03T06:19:01.522Z,5.38
2023-01-03T06:21:28.182Z,5.39
2023-01-03T06:23:54.731Z,5.42
2023-01-03T06:26:23.511Z,5.43
2023-01-03T06:28:51.000Z,5.45
2023-01-03T06:31:18.264Z,5.48
2023-01-03T06:33:45.025Z,5.48
2023-01-03T06:36:13.951Z,5.52
2023-01-03T06:38:41.056Z,5.51
2023-01-03T06:41:08.008Z,5.53
2023-01-03T06:43:35.233Z,5.52
2023-01-03T06:46:20.226Z,5.50
2023-01-03T06:49:05.580Z,5.51
2023-01-03T06:51:51.550Z,5.51
2023-01-03T06:54:38.004Z,5.54
2023-01-03T06:57:05.471Z,5.47
2023-01-03T06:59:31.957Z,5.46
2023-01-03T07:01:58.661Z,5.46
2023-01-03T07:04:26.593Z,5.48
2023-01-03T07:06:53.114Z,5.44
2023-01-03T07:09:19.885Z,5.44
2023-01-03T07:11:46.356Z,5.42
2023-01-03T07:14:13.176Z,5.39
2023-01-03T07:16:45.386Z,5.39
2023-01-03T07:19:14.971Z,5.38
2023-01-03T07:21:41.998Z,5.36
2023-01-03T07:24:11.723Z,5.33
2023-01-03T07:26:38.637Z,5.39
2023-01-03T07:29:07.380Z,5.41
2023-01-03T07:31:34.285Z,5.37
2023-01-03T07:34:01.291Z,5.39
2023-01-03T07:36:27.851Z,5.38
2023-01-03T07:38:55.834Z,5.38
2023-01-03T07:41:22.969Z,5.43
2023-01-03T07:43:49.849Z,5.41
2023-01-03T07:46:19.292Z,5.39
2023-01-03T07:48:48.291Z,5.41
2023-01-03T07:51:16.760Z,5.40
2023-01-03T07:53:44.356Z,5.40
2023-01-03T07:56:15.819Z,5.40
2023-01-03T07:58:44.285Z,5.38
2023-01-03T08:01:14.238Z,5.35
2023-01-03T08:03:41.143Z,5.30
2023-01-03T08:06:12.907Z,5.32
2023-01-03T08:08:39.870Z,5.27
2023-01-03T08:11:25.941Z,5.28
2023-01-03T08:13:52.964Z,5.25
2023-01-03T08:16:19.514Z,5.24
2023-01-03T08:18:46.047Z,5.20
2023-01-03T08:21:14.824Z,5.24
2023-01-03T08:23:42.134Z,5.19
2023-01-03T08:26:14.258Z,5.16
2023-01-03T08:28:42.515Z,5.19
2023-01-03T08:31:16.805Z,5.20
2023-01-03T08:33:48.791Z,5.19
2023-01-03T08:36:15.460Z,5.23
2023-01-03T08:38:48.902Z,5.21
2023-01-03T08:41:19.703Z,5.28
2023-01-03T08:43:48.103Z,5.25
2023-01-03T08:46:16.324Z,5.32
2023-01-03T08:48:43.804Z,5.39
2023-01-03T08:51:10.787Z,5.39
2023-01-03T08:53:37.365Z,5.49
2023-01-03T08:56:04.094Z,5.54
2023-01-03T08:58:30.498Z,5.62
2023-01-03T09:01:01.440Z,5.69
2023-01-03T09:03:31.023Z,5.79
2023-01-03T09:06:04.474Z,5.87
2023-01-03T09:08:32.862Z,5.88
2023-01-03T09:11:03.737Z,5.94
2023-01-03T09:13:30.354Z,6.04
2023-01-03T09:16:01.903Z,6.07
2023-01-03T09:18:28.370Z,6.17
2023-01-03T09:20:54.763Z,6.23
2023-01-03T09:23:21.263Z,6.28
2023-01-03T09:25:47.947Z,6.34
2023-01-03T09:28:14.378Z,6.39
2023-01-03T09:30:41.031Z,6.42
2023-01-03T09:33:10.476Z,6.47
2023-01-03T09:35:37.762Z,6.45
2023-01-03T09:38:04.447Z,6.48
2023-01-03T09:40:32.694Z,6.51
2023-01-03T09:43:19.814Z,6.55
2023-01-03T09:45:52.789Z,6.64
2023-01-03T09:48:29.659Z,6.64
2023-01-03T09:51:18.426Z,6.71
2023-01-03T09:54:01.036Z,6.77
2023-01-03T09:56:46.178Z,6.76
2023-01-03T09:59:36.615Z,6.81
2023-01-03T10:02:59.512Z,6.87
2023-01-03T10:05:41.222Z,6.95
2023-01-03T10:08:19.843Z,7.03
2023-01-03T10:11:07.876Z,7.15
2023-01-03T10:13:48.223Z,7.17
2023-01-03T10:16:49.413Z,7.21
2023-01-03T10:19:28.191Z,7.27
2023-01-03T10:22:12.883Z,7.24
2023-01-03T10:24:50.160Z,7.30
2023-01-03T10:27:22.869Z,7.34
2023-01-03T10:29:55.545Z,7.39
2023-01-03T10:32:30.531Z,7.38
2023-01-03T10:35:28.091Z,7.50
2023-01-03T10:37:56.514Z,7.54
2023-01-03T10:40:41.680Z,7.58
2023-01-03T10:43:10.455Z,7.64
2023-01-03T10:45:51.046Z,7.74
2023-01-03T10:48:17.863Z,7.77
2023-01-03T10:50:44.503Z,7.91
2023-01-03T10:53:14.231Z,8.06
2023-01-03T10:55:52.230Z,8.26
2023-01-03T10:58:28.134Z,8.45
2023-01-03T11:01:19.982Z,8.78
2023-01-03T11:04:24.456Z,9.03
2023-01-03T11:07:04.064Z,9.13
2023-01-03T11:09:53.264Z,9.34
2023-01-03T11:12:23.561Z,9.34
2023-01-03T11:14:51.056Z,9.55
2023-01-03T11:17:21.035Z,9.44
2023-01-03T11:19:47.595Z,9.40
2023-01-03T11:22:38.081Z,9.50
2023-01-03T11:25:19.896Z,9.61
2023-01-03T11:27:55.699Z,9.70
2023-01-03T11:30:53.177Z,9.91
2023-01-03T11:33:54.353Z,10.05
2023-01-03T11:36:39.526Z,10.12
2023-01-03T11:39:26.592Z,10.26
2023-01-03T11:42:05.336Z,10.42
2023-01-03T11:44:53.779Z,10.57
2023-01-03T11:47:58.571Z,10.80
2023-01-03T11:50:36.056Z,10.85
2023-01-03T11:53:04.993Z,10.98
2023-01-03T11:55:49.861Z,11.09
2023-01-03T11:58:20.745Z,11.14
2023-01-03T12:01:35.429Z,11.30
2023-01-03T12:04:24.508Z,11.35
2023-01-03T12:07:45.905Z,11.49
2023-01-03T12:10:01.936Z,11.47
2023-01-03T12:12:50.202Z,11.64
2023-01-03T12:15:16.560Z,11.63
2023-01-03T12:17:59.100Z,11.68
2023-01-03T12:20:34.292Z,11.78
2023-01-03T12:23:15.727Z,11.80
2023-01-03T12:25:51.327Z,11.82
2023-01-03T12:28:36.473Z,11.87
2023-01-03T12:31:37.161Z,12.01
2023-01-03T12:34:25.409Z,12.02
2023-01-03T12:37:04.428Z,12.02
2023-01-03T12:39:57.736Z,12.08
2023-01-03T12:42:46.545Z,12.16
2023-01-03T12:45:29.614Z,12.19
2023-01-03T12:48:13.757Z,12.16
2023-01-03T12:50:47.560Z,12.25
2023-01-03T12:53:18.978Z,12.32
2023-01-03T12:55:48.302Z,12.36
2023-01-03T12:58:40.006Z,12.39
2023-01-03T13:01:10.503Z,12.35
2023-01-03T13:03:44.405Z,12.35
2023-01-03T13:06:18.836Z,12.34
2023-01-03T13:08:50.817Z,12.36
2023-01-03T13:11:41.988Z,12.38
2023-01-03T13:14:53.775Z,12.40
2023-01-03T13:17:25.998Z,12.26
2023-01-03T13:19:57.809Z,12.29
2023-01-03T13:22:45.290Z,12.30
2023-01-03T13:25:26.779Z,12.36
2023-01-03T13:27:55.995Z,12.30
2023-01-03T13:30:34.583Z,12.32
2023-01-03T13:33:05.775Z,12.33
2023-01-03T13:35:35.869Z,12.30
2023-01-03T13:38:24.548Z,12.30
2023-01-03T13:43:47.275Z,12.16
2023-01-03T13:46:25.633Z,12.13
2023-01-03T13:49:23.737Z,12.05
2023-01-03T13:51:58.838Z,11.83
2023-01-03T13:54:35.154Z,11.65
2023-01-03T13:57:05.034Z,11.46
2023-01-03T13:59:47.414Z,11.26
2023-01-03T14:02:51.249Z,11.03
2023-01-03T14:05:26.929Z,10.78
2023-01-03T14:07:57.922Z,10.65
2023-01-03T14:10:43.094Z,10.49
2023-01-03T14:13:18.536Z,10.36
2023-01-03T14:15:47.031Z,10.16
2023-01-03T14:18:24.170Z,10.04
2023-01-03T14:20:57.092Z,9.87
2023-01-03T14:26:16.098Z,9.54
2023-01-03T14:28:48.387Z,9.41
2023-01-03T14:31:21.867Z,9.28
2023-01-03T14:33:57.935Z,9.15
2023-01-03T14:36:25.701Z,9.01
2023-01-03T14:38:54.934Z,8.90
2023-01-03T14:41:43.148Z,8.85
2023-01-03T14:44:09.532Z,8.72
2023-01-03T14:46:37.906Z,8.64
2023-01-03T14:49:21.267Z,8.63
2023-01-03T14:51:48.344Z,8.56
2023-01-03T14:54:17.816Z,8.54
2023-01-03T14:56:45.777Z,8.52
2023-01-03T14:59:19.559Z,8.51
2023-01-03T15:01:46.612Z,8.48
2023-01-03T15:04:14.976Z,8.44
2023-01-03T15:07:09.616Z,8.45
2023-01-03T15:09:39.702Z,8.39
2023-01-03T15:12:06.604Z,8.42
2023-01-03T15:14:36.063Z,8.44
2023-01-03T15:17:11.739Z,8.45
2023-01-03T15:19:41.221Z,8.46
2023-01-03T15:22:18.650Z,8.47
2023-01-03T15:24:47.650Z,8.50
2023-01-03T15:27:38.645Z,8.55
2023-01-03T15:30:23.737Z,8.56
2023-01-03T15:32:53.155Z,8.56
2023-01-03T15:35:40.596Z,8.62
2023-01-03T15:38:17.148Z,8.59
2023-01-03T15:40:47.352Z,8.58
2023-01-03T15:43:21.672Z,8.58
2023-01-03T15:46:17.820Z,8.56
2023-01-03T15:48:54.873Z,8.53
2023-01-03T15:51:21.417Z,8.49
2023-01-03T15:53:48.084Z,8.48
2023-01-03T15:57:02.361Z,8.48
2023-01-03T15:59:31.878Z,8.40
2023-01-03T16:01:58.593Z,8.29
2023-01-03T16:04:28.685Z,8.35
2023-01-03T16:06:56.000Z,8.33
2023-01-03T16:09:22.454Z,8.30
2023-01-03T16:11:55.417Z,8.31
2023-01-03T16:14:27.720Z,8.29
2023-01-03T16:16:56.845Z,8.27
2023-01-03T16:19:26.134Z,8.27
2023-01-03T16:22:32.601Z,8.25
2023-01-03T16:24:41.675Z,8.23
2023-01-03T16:27:20.941Z,8.25
2023-01-03T16:29:47.588Z,8.24
2023-01-03T16:32:21.924Z,8.24
2023-01-03T16:34:49.578Z,8.22
2023-01-03T16:37:16.530Z,8.22
2023-01-03T16:39:47.909Z,8.24
2023-01-03T16:42:15.328Z,8.25
2023-01-03T16:44:46.788Z,8.26
2023-01-03T16:47:25.726Z,8.28
2023-01-03T16:49:58.516Z,8.30
2023-01-03T16:52:34.099Z,8.32
2023-01-03T16:55:04.188Z,8.33
2023-01-03T16:57:30.833Z,8.27
2023-01-03T16:59:57.416Z,8.34
2023-01-03T17:02:24.195Z,8.31
2023-01-03T17:04:50.693Z,8.39
2023-01-03T17:07:21.359Z,8.40
2023-01-03T17:09:50.818Z,8.40
2023-01-03T17:12:22.570Z,8.45
2023-01-03T17:14:49.944Z,8.45
2023-01-03T17:17:18.139Z,8.48
2023-01-03T17:20:03.386Z,8.49
2023-01-03T17:22:31.372Z,8.52
2023-01-03T17:24:57.813Z,8.52
2023-01-03T17:27:32.518Z,8.54
2023-01-03T17:30:04.457Z,8.55
2023-01-03T17:32:31.429Z,8.55
2023-01-03T17:34:58.071Z,8.57
2023-01-03T17:37:25.599Z,8.58
2023-01-03T17:39:57.718Z,8.61
2023-01-03T17:42:26.508Z,8.61
2023-01-03T17:45:12.166Z,8.62
2023-01-03T17:48:02.005Z,8.66
2023-01-03T17:50:32.521Z,8.69
2023-01-03T17:53:01.284Z,8.68
2023-01-03T17:55:29.936Z,8.73
2023-01-03T17:57:59.575Z,8.71
2023-01-03T18:00:28.117Z,8.68
2023-01-03T18:02:55.719Z,8.74
2023-01-03T18:05:28.603Z,8.75
2023-01-03T18:07:57.340Z,8.74
2023-01-03T18:10:45.814Z,8.73
2023-01-03T18:13:22.061Z,8.70
2023-01-03T18:15:49.289Z,8.64
2023-01-03T18:18:18.173Z,8.65
2023-01-03T18:20:45.331Z,8.63
2023-01-03T18:23:31.562Z,8.66
2023-01-03T18:26:10.867Z,8.65
2023-01-03T18:28:37.294Z,8.64
2023-01-03T18:31:04.082Z,8.59
2023-01-03T18:33:30.611Z,8.61
2023-01-03T18:35:57.205Z,8.61
2023-01-03T18:38:41.360Z,8.61
2023-01-03T18:41:17.768Z,8.61
2023-01-03T18:43:44.191Z,8.60
2023-01-03T18:46:14.947Z,8.59
2023-01-03T18:48:41.388Z,8.59
2023-01-03T18:51:15.110Z,8.60
2023-01-03T18:53:43.869Z,8.57
2023-01-03T18:56:46.095Z,8.67
2023-01-03T18:59:27.785Z,8.67
2023-01-03T19:01:55.107Z,8.60
2023-01-03T19:04:21.629Z,8.68
2023-01-03T19:06:51.919Z,8.67
2023-01-03T19:09:22.441Z,8.79
2023-01-03T19:11:49.444Z,8.75
2023-01-03T19:14:16.192Z,8.73
2023-01-03T19:16:42.875Z,8.76
2023-01-03T19:19:10.301Z,8.76
2023-01-03T19:21:42.361Z,8.76
2023-01-03T19:24:38.492Z,8.78
2023-01-03T19:27:16.431Z,8.72
2023-01-03T19:29:43.768Z,8.77
2023-01-03T19:32:19.152Z,8.77
2023-01-03T19:34:45.624Z,8.79
2023-01-03T19:37:12.441Z,8.73
2023-01-03T19:39:38.977Z,8.82
2023-01-03T19:42:30.232Z,8.85
2023-01-03T19:44:59.233Z,8.87
2023-01-03T19:47:25.656Z,8.87
2023-01-03T19:49:52.124Z,8.87
2023-01-03T19:52:18.727Z,8.90
2023-01-03T19:54:45.220Z,8.90
2023-01-03T19:57:21.390Z,8.93
2023-01-03T19:59:52.607Z,8.89
2023-01-03T20:02:26.058Z,8.92
2023-01-03T20:04:52.929Z,8.90
2023-01-03T20:07:19.464Z,8.88
2023-01-03T20:09:45.864Z,8.83
2023-01-03T20:12:21.653Z,8.83
2023-01-03T20:14:51.360Z,8.83
2023-01-03T20:17:25.157Z,8.83
2023-01-03T20:19:52.747Z,8.77
2023-01-03T20:25:32.263Z,8.77
2023-01-03T20:28:00.286Z,8.76
2023-01-03T20:30:29.522Z,8.72
2023-01-03T20:32:56.444Z,8.71
2023-01-03T20:36:08.313Z,8.71
2023-01-03T20:38:11.945Z,8.67
2023-01-03T20:40:39.162Z,8.68
2023-01-03T20:43:05.827Z,8.67
2023-01-03T20:45:32.706Z,8.62
2023-01-03T20:47:59.332Z,8.56
2023-01-03T20:50:27.957Z,8.61
2023-01-03T20:52:55.200Z,8.60
2023-01-03T20:55:23.816Z,8.58
2023-01-03T20:57:51.133Z,8.55
2023-01-03T21:00:32.319Z,8.54
2023-01-03T21:02:58.947Z,8.52
2023-01-03T21:05:25.882Z,8.48
2023-01-03T21:08:10.953Z,8.48
2023-01-03T21:10:42.729Z,8.49
2023-01-03T21:13:10.315Z,8.43
2023-01-03T21:15:38.073Z,8.45
2023-01-03T21:18:06.111Z,8.44
2023-01-03T21:20:33.134Z,8.42
2023-01-03T21:22:59.786Z,8.40
2023-01-03T21:25:35.045Z,8.41
2023-01-03T21:28:02.665Z,8.41
2023-01-03T21:30:31.486Z,8.41
2023-01-03T21:32:59.501Z,8.40
2023-01-03T21:35:26.459Z,8.41
2023-01-03T21:37:53.978Z,8.42
2023-01-03T21:40:26.463Z,8.45
2023-01-03T21:43:05.605Z,8.44
2023-01-03T21:45:43.906Z,8.49
2023-01-03T21:48:15.721Z,8.48
2023-01-03T21:50:47.192Z,8.52
2023-01-03T21:53:17.845Z,8.54
2023-01-03T21:55:44.446Z,8.55
2023-01-03T21:58:14.042Z,8.57
2023-01-03T22:00:41.423Z,8.60
2023-01-03T22:03:29.967Z,8.61
2023-01-03T22:06:13.679Z,8.63
2023-01-03T22:08:40.687Z,8.63
2023-01-03T22:11:07.906Z,8.67
2023-01-03T22:13:35.050Z,8.67
2023-01-03T22:16:09.182Z,8.68
2023-01-03T22:18:36.663Z,8.68
2023-01-03T22:21:08.188Z,8.76
2023-01-03T22:23:35.892Z,8.77
2023-01-03T22:26:07.058Z,8.80
2023-01-03T22:28:51.501Z,8.84
2023-01-03T22:31:20.371Z,8.84
2023-01-03T22:33:48.635Z,8.86
2023-01-03T22:36:15.683Z,8.92
2023-01-03T22:38:43.069Z,8.91
2023-01-03T22:41:13.530Z,8.95
2023-01-03T22:43:40.477Z,8.88
2023-01-03T22:46:11.897Z,8.95
2023-01-03T22:48:38.629Z,8.94
2023-01-03T22:51:07.739Z,8.93
2023-01-03T22:53:35.544Z,8.93
2023-01-03T22:56:11.357Z,8.98
2023-01-03T22:58:38.408Z,8.99
2023-01-03T23:01:10.503Z,9.00
2023-01-03T23:03:37.065Z,9.01
2023-01-03T23:06:06.106Z,9.06
2023-01-03T23:08:34.029Z,9.02
2023-01-03T23:11:34.678Z,9.06
2023-01-03T23:14:04.596Z,9.13
2023-01-03T23:16:32.611Z,9.12
2023-01-03T23:19:08.238Z,9.06
2023-01-03T23:21:35.021Z,9.06
2023-01-03T23:24:01.578Z,9.04
2023-01-03T23:26:28.062Z,9.06
2023-01-03T23:28:59.912Z,9.08
2023-01-03T23:31:27.755Z,9.12
2023-01-03T23:33:55.520Z,9.12
2023-01-03T23:36:21.993Z,9.14
2023-01-03T23:38:48.704Z,9.15
2023-01-03T23:41:15.140Z,9.14
2023-01-03T23:43:41.541Z,9.11
2023-01-03T23:46:08.050Z,9.12
2023-01-03T23:48:34.716Z,9.15
2023-01-03T23:51:06.355Z,9.12
2023-01-03T23:53:37.404Z,9.10
2023-01-03T23:56:06.353Z,9.15
2023-01-03T23:58:33.225Z,9.16
